sensor_id;sensor_type;location;lat;lon;timestamp;P1;durP1;ratioP1;P2;durP2;ratioP2
49614;SDS011;35517;45.272;9.984;2023-01-28T00:01:43;35.15;;;16.63;;
49614;SDS011;35517;45.272;9.984;2023-01-28T00:09:40;30.40;;;15.35;;
49614;SDS011;35517;45.272;9.984;2023-01-28T00:12:07;31.38;;;17.67;;
49614;SDS011;35517;45.272;9.984;2023-01-28T00:14:33;34.25;;;16.75;;
49614;SDS011;35517;45.272;9.984;2023-01-28T00:17:00;29.42;;;16.65;;
49614;SDS011;35517;45.272;9.984;2023-01-28T00:19:26;30.33;;;16.92;;
49614;SDS011;35517;45.272;9.984;2023-01-28T00:21:53;31.77;;;17.17;;
49614;SDS011;35517;45.272;9.984;2023-01-28T00:24:19;33.45;;;17.60;;
49614;SDS011;35517;45.272;9.984;2023-01-28T00:26:46;30.63;;;16.50;;
49614;SDS011;35517;45.272;9.984;2023-01-28T00:29:12;26.35;;;14.93;;
49614;SDS011;35517;45.272;9.984;2023-01-28T00:31:39;29.98;;;16.60;;
49614;SDS011;35517;45.272;9.984;2023-01-28T00:34:06;34.83;;;18.15;;
49614;SDS011;35517;45.272;9.984;2023-01-28T00:36:51;32.15;;;15.82;;
49614;SDS011;35517;45.272;9.984;2023-01-28T00:42:07;29.45;;;15.95;;
49614;SDS011;35517;45.272;9.984;2023-01-28T00:44:54;35.00;;;16.35;;
49614;SDS011;35517;45.272;9.984;2023-01-28T00:47:21;33.13;;;17.02;;
49614;SDS011;35517;45.272;9.984;2023-01-28T00:49:47;33.15;;;16.45;;
49614;SDS011;35517;45.272;9.984;2023-01-28T00:52:32;33.97;;;17.88;;
49614;SDS011;35517;45.272;9.984;2023-01-28T00:54:59;32.90;;;15.65;;
49614;SDS011;35517;45.272;9.984;2023-01-28T00:57:25;34.95;;;19.05;;
49614;SDS011;35517;45.272;9.984;2023-01-28T00:59:52;34.35;;;15.57;;
49614;SDS011;35517;45.272;9.984;2023-01-28T01:02:20;30.50;;;15.65;;
49614;SDS011;35517;45.272;9.984;2023-01-28T01:04:47;35.03;;;16.60;;
49614;SDS011;35517;45.272;9.984;2023-01-28T01:10:19;33.20;;;15.88;;
49614;SDS011;35517;45.272;9.984;2023-01-28T01:18:54;28.70;;;15.68;;
49614;SDS011;35517;45.272;9.984;2023-01-28T01:21:23;29.58;;;16.60;;
49614;SDS011;35517;45.272;9.984;2023-01-28T01:23:50;30.85;;;16.60;;
49614;SDS011;35517;45.272;9.984;2023-01-28T01:26:17;29.63;;;16.48;;
49614;SDS011;35517;45.272;9.984;2023-01-28T01:28:44;30.85;;;15.55;;
49614;SDS011;35517;45.272;9.984;2023-01-28T01:31:13;34.35;;;17.27;;
49614;SDS011;35517;45.272;9.984;2023-01-28T01:33:43;30.70;;;16.38;;
49614;SDS011;35517;45.272;9.984;2023-01-28T01:36:29;34.92;;;17.55;;
49614;SDS011;35517;45.272;9.984;2023-01-28T01:38:56;35.15;;;16.33;;
49614;SDS011;35517;45.272;9.984;2023-01-28T01:41:24;36.60;;;18.20;;
49614;SDS011;35517;45.272;9.984;2023-01-28T01:46:55;40.33;;;18.73;;
49614;SDS011;35517;45.272;9.984;2023-01-28T01:52:27;32.55;;;17.13;;
49614;SDS011;35517;45.272;9.984;2023-01-28T01:54:56;34.70;;;17.33;;
49614;SDS011;35517;45.272;9.984;2023-01-28T01:57:43;31.52;;;17.30;;
49614;SDS011;35517;45.272;9.984;2023-01-28T02:00:10;30.23;;;16.30;;
49614;SDS011;35517;45.272;9.984;2023-01-28T02:02:56;27.08;;;16.35;;
49614;SDS011;35517;45.272;9.984;2023-01-28T02:05:23;30.33;;;15.40;;
49614;SDS011;35517;45.272;9.984;2023-01-28T02:08:09;28.17;;;15.25;;
49614;SDS011;35517;45.272;9.984;2023-01-28T02:11:24;28.10;;;15.15;;
49614;SDS011;35517;45.272;9.984;2023-01-28T02:16:29;31.35;;;16.02;;
49614;SDS011;35517;45.272;9.984;2023-01-28T02:22:05;30.83;;;15.90;;
49614;SDS011;35517;45.272;9.984;2023-01-28T02:32:32;28.17;;;15.85;;
49614;SDS011;35517;45.272;9.984;2023-01-28T02:37:37;35.25;;;18.42;;
49614;SDS011;35517;45.272;9.984;2023-01-28T02:42:52;31.42;;;15.63;;
49614;SDS011;35517;45.272;9.984;2023-01-28T02:45:23;36.70;;;16.77;;
49614;SDS011;35517;45.272;9.984;2023-01-28T02:48:11;33.10;;;18.13;;
49614;SDS011;35517;45.272;9.984;2023-01-28T02:51:03;36.58;;;17.55;;
49614;SDS011;35517;45.272;9.984;2023-01-28T02:53:37;32.65;;;16.33;;
49614;SDS011;35517;45.272;9.984;2023-01-28T02:56:32;36.05;;;18.25;;
49614;SDS011;35517;45.272;9.984;2023-01-28T03:07:25;34.45;;;17.42;;
49614;SDS011;35517;45.272;9.984;2023-01-28T03:09:53;27.63;;;15.35;;
49614;SDS011;35517;45.272;9.984;2023-01-28T03:15:34;24.98;;;13.98;;
49614;SDS011;35517;45.272;9.984;2023-01-28T03:18:22;33.05;;;16.45;;
49614;SDS011;35517;45.272;9.984;2023-01-28T03:24:15;23.33;;;13.50;;
49614;SDS011;35517;45.272;9.984;2023-01-28T03:30:11;29.98;;;14.95;;
49614;SDS011;35517;45.272;9.984;2023-01-28T03:33:02;28.15;;;16.13;;
49614;SDS011;35517;45.272;9.984;2023-01-28T03:36:15;31.00;;;16.15;;
49614;SDS011;35517;45.272;9.984;2023-01-28T03:39:01;28.73;;;14.98;;
49614;SDS011;35517;45.272;9.984;2023-01-28T03:41:27;28.83;;;16.02;;
49614;SDS011;35517;45.272;9.984;2023-01-28T03:43:56;27.38;;;15.07;;
49614;SDS011;35517;45.272;9.984;2023-01-28T03:46:43;28.02;;;14.70;;
49614;SDS011;35517;45.272;9.984;2023-01-28T03:49:10;28.67;;;15.25;;
49614;SDS011;35517;45.272;9.984;2023-01-28T03:51:38;32.85;;;16.55;;
49614;SDS011;35517;45.272;9.984;2023-01-28T03:54:05;31.15;;;16.05;;
49614;SDS011;35517;45.272;9.984;2023-01-28T03:56:32;34.13;;;17.38;;
49614;SDS011;35517;45.272;9.984;2023-01-28T03:59:07;31.05;;;15.30;;
49614;SDS011;35517;45.272;9.984;2023-01-28T04:01:35;31.55;;;17.45;;
49614;SDS011;35517;45.272;9.984;2023-01-28T04:04:02;33.13;;;15.63;;
49614;SDS011;35517;45.272;9.984;2023-01-28T04:06:29;38.78;;;19.65;;
49614;SDS011;35517;45.272;9.984;2023-01-28T04:08:55;34.72;;;17.30;;
49614;SDS011;35517;45.272;9.984;2023-01-28T04:11:42;33.67;;;17.05;;
49614;SDS011;35517;45.272;9.984;2023-01-28T04:14:12;35.75;;;18.40;;
49614;SDS011;35517;45.272;9.984;2023-01-28T04:17:09;33.65;;;18.30;;
49614;SDS011;35517;45.272;9.984;2023-01-28T04:19:36;34.95;;;17.80;;
49614;SDS011;35517;45.272;9.984;2023-01-28T04:22:05;34.17;;;16.92;;
49614;SDS011;35517;45.272;9.984;2023-01-28T04:24:38;31.02;;;16.85;;
49614;SDS011;35517;45.272;9.984;2023-01-28T04:27:05;36.17;;;17.27;;
49614;SDS011;35517;45.272;9.984;2023-01-28T04:29:31;34.55;;;18.55;;
49614;SDS011;35517;45.272;9.984;2023-01-28T04:32:10;32.45;;;16.95;;
49614;SDS011;35517;45.272;9.984;2023-01-28T04:35:04;32.40;;;16.60;;
49614;SDS011;35517;45.272;9.984;2023-01-28T04:38:03;35.30;;;17.65;;
49614;SDS011;35517;45.272;9.984;2023-01-28T04:40:49;41.37;;;16.97;;
49614;SDS011;35517;45.272;9.984;2023-01-28T04:43:28;37.72;;;19.67;;
49614;SDS011;35517;45.272;9.984;2023-01-28T04:46:18;29.80;;;17.27;;
49614;SDS011;35517;45.272;9.984;2023-01-28T04:49:13;34.45;;;19.08;;
49614;SDS011;35517;45.272;9.984;2023-01-28T04:51:41;30.52;;;17.45;;
49614;SDS011;35517;45.272;9.984;2023-01-28T04:54:08;32.42;;;17.73;;
49614;SDS011;35517;45.272;9.984;2023-01-28T04:56:35;36.83;;;16.92;;
49614;SDS011;35517;45.272;9.984;2023-01-28T04:59:04;34.75;;;18.25;;
49614;SDS011;35517;45.272;9.984;2023-01-28T05:01:32;29.67;;;17.52;;
49614;SDS011;35517;45.272;9.984;2023-01-28T05:03:59;34.75;;;19.00;;
49614;SDS011;35517;45.272;9.984;2023-01-28T05:06:31;40.47;;;19.33;;
49614;SDS011;35517;45.272;9.984;2023-01-28T05:09:06;31.50;;;18.00;;
49614;SDS011;35517;45.272;9.984;2023-01-28T05:11:32;33.60;;;18.65;;
49614;SDS011;35517;45.272;9.984;2023-01-28T05:14:03;36.85;;;18.65;;
49614;SDS011;35517;45.272;9.984;2023-01-28T05:16:39;34.78;;;18.58;;
49614;SDS011;35517;45.272;9.984;2023-01-28T05:19:06;37.45;;;17.45;;
49614;SDS011;35517;45.272;9.984;2023-01-28T05:21:37;35.08;;;17.75;;
49614;SDS011;35517;45.272;9.984;2023-01-28T05:24:08;32.42;;;16.58;;
49614;SDS011;35517;45.272;9.984;2023-01-28T05:26:35;41.10;;;19.70;;
49614;SDS011;35517;45.272;9.984;2023-01-28T05:29:03;32.58;;;18.17;;
49614;SDS011;35517;45.272;9.984;2023-01-28T05:31:30;29.35;;;16.05;;
49614;SDS011;35517;45.272;9.984;2023-01-28T05:33:56;36.08;;;18.33;;
49614;SDS011;35517;45.272;9.984;2023-01-28T05:36:23;33.95;;;20.33;;
49614;SDS011;35517;45.272;9.984;2023-01-28T05:38:50;32.92;;;18.05;;
49614;SDS011;35517;45.272;9.984;2023-01-28T05:41:16;37.40;;;17.30;;
49614;SDS011;35517;45.272;9.984;2023-01-28T05:43:45;31.88;;;18.45;;
49614;SDS011;35517;45.272;9.984;2023-01-28T05:46:35;32.92;;;17.27;;
49614;SDS011;35517;45.272;9.984;2023-01-28T05:49:21;36.40;;;19.17;;
49614;SDS011;35517;45.272;9.984;2023-01-28T05:52:28;36.63;;;17.58;;
49614;SDS011;35517;45.272;9.984;2023-01-28T05:54:55;37.67;;;19.08;;
49614;SDS011;35517;45.272;9.984;2023-01-28T05:57:22;33.97;;;19.13;;
49614;SDS011;35517;45.272;9.984;2023-01-28T05:59:49;35.33;;;18.55;;
49614;SDS011;35517;45.272;9.984;2023-01-28T06:02:16;35.72;;;18.13;;
49614;SDS011;35517;45.272;9.984;2023-01-28T06:04:43;33.88;;;18.98;;
49614;SDS011;35517;45.272;9.984;2023-01-28T06:07:09;36.78;;;18.70;;
49614;SDS011;35517;45.272;9.984;2023-01-28T06:09:38;33.83;;;17.60;;
49614;SDS011;35517;45.272;9.984;2023-01-28T06:12:06;35.28;;;19.67;;
49614;SDS011;35517;45.272;9.984;2023-01-28T06:14:41;40.33;;;19.40;;
49614;SDS011;35517;45.272;9.984;2023-01-28T06:17:34;39.28;;;20.42;;
49614;SDS011;35517;45.272;9.984;2023-01-28T06:20:06;44.38;;;19.65;;
49614;SDS011;35517;45.272;9.984;2023-01-28T06:22:35;35.35;;;17.67;;
49614;SDS011;35517;45.272;9.984;2023-01-28T06:25:02;34.00;;;18.30;;
49614;SDS011;35517;45.272;9.984;2023-01-28T06:27:31;38.90;;;18.80;;
49614;SDS011;35517;45.272;9.984;2023-01-28T06:29:58;36.88;;;20.73;;
49614;SDS011;35517;45.272;9.984;2023-01-28T06:32:24;36.08;;;18.00;;
49614;SDS011;35517;45.272;9.984;2023-01-28T06:34:51;37.75;;;18.00;;
49614;SDS011;35517;45.272;9.984;2023-01-28T06:37:18;35.38;;;19.00;;
49614;SDS011;35517;45.272;9.984;2023-01-28T06:39:45;35.03;;;19.05;;
49614;SDS011;35517;45.272;9.984;2023-01-28T06:42:11;41.13;;;19.38;;
49614;SDS011;35517;45.272;9.984;2023-01-28T06:44:38;37.50;;;19.95;;
49614;SDS011;35517;45.272;9.984;2023-01-28T06:47:05;38.50;;;19.92;;
49614;SDS011;35517;45.272;9.984;2023-01-28T06:49:31;42.08;;;20.73;;
49614;SDS011;35517;45.272;9.984;2023-01-28T06:51:58;44.47;;;21.98;;
49614;SDS011;35517;45.272;9.984;2023-01-28T06:54:25;44.42;;;22.13;;
49614;SDS011;35517;45.272;9.984;2023-01-28T06:56:51;36.95;;;20.80;;
49614;SDS011;35517;45.272;9.984;2023-01-28T06:59:18;40.97;;;19.25;;
49614;SDS011;35517;45.272;9.984;2023-01-28T07:01:44;49.05;;;18.58;;
49614;SDS011;35517;45.272;9.984;2023-01-28T07:04:11;50.20;;;21.48;;
49614;SDS011;35517;45.272;9.984;2023-01-28T07:06:38;32.53;;;18.70;;
49614;SDS011;35517;45.272;9.984;2023-01-28T07:09:04;37.75;;;19.00;;
49614;SDS011;35517;45.272;9.984;2023-01-28T07:11:31;37.65;;;19.10;;
49614;SDS011;35517;45.272;9.984;2023-01-28T07:13:57;39.17;;;20.02;;
49614;SDS011;35517;45.272;9.984;2023-01-28T07:16:24;40.13;;;20.75;;
49614;SDS011;35517;45.272;9.984;2023-01-28T07:18:50;42.92;;;20.80;;
49614;SDS011;35517;45.272;9.984;2023-01-28T07:21:17;37.72;;;19.95;;
49614;SDS011;35517;45.272;9.984;2023-01-28T07:23:44;40.90;;;18.65;;
49614;SDS011;35517;45.272;9.984;2023-01-28T07:26:11;38.28;;;18.48;;
49614;SDS011;35517;45.272;9.984;2023-01-28T07:28:37;34.72;;;18.73;;
49614;SDS011;35517;45.272;9.984;2023-01-28T07:31:04;38.85;;;18.15;;
49614;SDS011;35517;45.272;9.984;2023-01-28T07:33:30;33.08;;;18.52;;
49614;SDS011;35517;45.272;9.984;2023-01-28T07:35:57;39.60;;;21.23;;
49614;SDS011;35517;45.272;9.984;2023-01-28T07:38:23;33.05;;;18.33;;
49614;SDS011;35517;45.272;9.984;2023-01-28T07:40:50;34.72;;;16.92;;
49614;SDS011;35517;45.272;9.984;2023-01-28T07:43:17;34.78;;;18.88;;
49614;SDS011;35517;45.272;9.984;2023-01-28T07:45:44;33.75;;;17.42;;
49614;SDS011;35517;45.272;9.984;2023-01-28T07:48:12;30.67;;;16.83;;
49614;SDS011;35517;45.272;9.984;2023-01-28T07:50:38;26.05;;;16.25;;
49614;SDS011;35517;45.272;9.984;2023-01-28T07:53:06;35.10;;;21.30;;
49614;SDS011;35517;45.272;9.984;2023-01-28T07:55:34;33.38;;;19.65;;
49614;SDS011;35517;45.272;9.984;2023-01-28T07:58:01;32.83;;;18.33;;
49614;SDS011;35517;45.272;9.984;2023-01-28T08:00:29;32.70;;;18.45;;
49614;SDS011;35517;45.272;9.984;2023-01-28T08:03:00;38.08;;;18.58;;
49614;SDS011;35517;45.272;9.984;2023-01-28T08:05:46;32.17;;;18.23;;
49614;SDS011;35517;45.272;9.984;2023-01-28T08:08:12;32.92;;;17.23;;
49614;SDS011;35517;45.272;9.984;2023-01-28T08:10:39;38.92;;;17.05;;
49614;SDS011;35517;45.272;9.984;2023-01-28T08:13:06;32.83;;;17.00;;
49614;SDS011;35517;45.272;9.984;2023-01-28T08:15:33;32.75;;;17.95;;
49614;SDS011;35517;45.272;9.984;2023-01-28T08:17:59;34.30;;;17.27;;
49614;SDS011;35517;45.272;9.984;2023-01-28T08:20:27;30.02;;;15.63;;
49614;SDS011;35517;45.272;9.984;2023-01-28T08:23:03;32.53;;;18.70;;
49614;SDS011;35517;45.272;9.984;2023-01-28T08:25:29;34.55;;;17.55;;
49614;SDS011;35517;45.272;9.984;2023-01-28T08:27:56;43.78;;;19.30;;
49614;SDS011;35517;45.272;9.984;2023-01-28T08:30:23;35.53;;;18.23;;
49614;SDS011;35517;45.272;9.984;2023-01-28T08:32:53;35.85;;;17.17;;
49614;SDS011;35517;45.272;9.984;2023-01-28T08:35:20;39.45;;;18.52;;
49614;SDS011;35517;45.272;9.984;2023-01-28T08:37:47;47.33;;;17.90;;
49614;SDS011;35517;45.272;9.984;2023-01-28T08:40:13;32.65;;;18.05;;
49614;SDS011;35517;45.272;9.984;2023-01-28T08:42:50;33.72;;;19.83;;
49614;SDS011;35517;45.272;9.984;2023-01-28T08:45:17;37.25;;;20.73;;
49614;SDS011;35517;45.272;9.984;2023-01-28T08:48:06;32.13;;;18.80;;
49614;SDS011;35517;45.272;9.984;2023-01-28T08:50:34;38.72;;;17.98;;
49614;SDS011;35517;45.272;9.984;2023-01-28T08:53:03;31.30;;;17.85;;
49614;SDS011;35517;45.272;9.984;2023-01-28T08:55:30;35.33;;;18.60;;
49614;SDS011;35517;45.272;9.984;2023-01-28T08:58:00;31.98;;;17.10;;
49614;SDS011;35517;45.272;9.984;2023-01-28T09:00:27;33.25;;;18.35;;
49614;SDS011;35517;45.272;9.984;2023-01-28T09:02:53;32.03;;;17.98;;
49614;SDS011;35517;45.272;9.984;2023-01-28T09:05:20;37.35;;;19.98;;
49614;SDS011;35517;45.272;9.984;2023-01-28T09:07:48;27.25;;;17.58;;
49614;SDS011;35517;45.272;9.984;2023-01-28T09:10:16;31.05;;;17.83;;
49614;SDS011;35517;45.272;9.984;2023-01-28T09:12:45;34.30;;;18.95;;
49614;SDS011;35517;45.272;9.984;2023-01-28T09:15:12;29.45;;;15.63;;
49614;SDS011;35517;45.272;9.984;2023-01-28T09:17:38;34.67;;;16.90;;
49614;SDS011;35517;45.272;9.984;2023-01-28T09:20:05;45.55;;;19.08;;
49614;SDS011;35517;45.272;9.984;2023-01-28T09:22:33;39.90;;;20.10;;
49614;SDS011;35517;45.272;9.984;2023-01-28T09:24:59;30.95;;;18.02;;
49614;SDS011;35517;45.272;9.984;2023-01-28T09:27:26;30.35;;;17.50;;
49614;SDS011;35517;45.272;9.984;2023-01-28T09:29:52;35.33;;;18.30;;
49614;SDS011;35517;45.272;9.984;2023-01-28T09:32:19;31.02;;;17.63;;
49614;SDS011;35517;45.272;9.984;2023-01-28T09:34:45;30.35;;;17.08;;
49614;SDS011;35517;45.272;9.984;2023-01-28T09:37:12;31.38;;;16.30;;
49614;SDS011;35517;45.272;9.984;2023-01-28T09:39:39;29.15;;;15.15;;
49614;SDS011;35517;45.272;9.984;2023-01-28T09:49:53;28.42;;;15.52;;
49614;SDS011;35517;45.272;9.984;2023-01-28T09:52:22;25.75;;;15.88;;
49614;SDS011;35517;45.272;9.984;2023-01-28T09:57:18;23.00;;;13.77;;
49614;SDS011;35517;45.272;9.984;2023-01-28T09:59:46;27.38;;;15.60;;
49614;SDS011;35517;45.272;9.984;2023-01-28T10:11:16;22.58;;;13.82;;
49614;SDS011;35517;45.272;9.984;2023-01-28T10:13:45;22.48;;;13.55;;
49614;SDS011;35517;45.272;9.984;2023-01-28T10:19:26;30.70;;;13.60;;
49614;SDS011;35517;45.272;9.984;2023-01-28T10:22:00;22.88;;;14.15;;
49614;SDS011;35517;45.272;9.984;2023-01-28T10:24:32;24.90;;;14.35;;
49614;SDS011;35517;45.272;9.984;2023-01-28T10:27:01;23.45;;;12.07;;
49614;SDS011;35517;45.272;9.984;2023-01-28T10:29:29;32.70;;;15.27;;
49614;SDS011;35517;45.272;9.984;2023-01-28T10:31:58;29.63;;;14.43;;
49614;SDS011;35517;45.272;9.984;2023-01-28T10:34:28;24.23;;;14.05;;
49614;SDS011;35517;45.272;9.984;2023-01-28T10:36:54;27.52;;;14.98;;
49614;SDS011;35517;45.272;9.984;2023-01-28T10:39:23;26.20;;;12.45;;
49614;SDS011;35517;45.272;9.984;2023-01-28T10:41:51;23.02;;;13.68;;
49614;SDS011;35517;45.272;9.984;2023-01-28T10:44:25;23.10;;;14.15;;
49614;SDS011;35517;45.272;9.984;2023-01-28T10:47:09;23.35;;;13.30;;
49614;SDS011;35517;45.272;9.984;2023-01-28T10:49:38;28.40;;;12.93;;
49614;SDS011;35517;45.272;9.984;2023-01-28T10:52:13;24.55;;;12.80;;
49614;SDS011;35517;45.272;9.984;2023-01-28T10:54:41;19.52;;;11.63;;
49614;SDS011;35517;45.272;9.984;2023-01-28T10:57:09;33.17;;;13.55;;
49614;SDS011;35517;45.272;9.984;2023-01-28T10:59:37;25.65;;;13.00;;
49614;SDS011;35517;45.272;9.984;2023-01-28T11:02:23;22.90;;;13.57;;
49614;SDS011;35517;45.272;9.984;2023-01-28T11:08:01;27.13;;;14.20;;
49614;SDS011;35517;45.272;9.984;2023-01-28T11:10:33;22.58;;;12.48;;
49614;SDS011;35517;45.272;9.984;2023-01-28T11:13:01;23.70;;;13.05;;
49614;SDS011;35517;45.272;9.984;2023-01-28T11:15:29;26.67;;;12.90;;
49614;SDS011;35517;45.272;9.984;2023-01-28T11:17:59;26.08;;;12.30;;
49614;SDS011;35517;45.272;9.984;2023-01-28T11:20:27;23.55;;;13.13;;
49614;SDS011;35517;45.272;9.984;2023-01-28T11:22:54;29.35;;;13.75;;
49614;SDS011;35517;45.272;9.984;2023-01-28T11:25:32;25.52;;;13.38;;
49614;SDS011;35517;45.272;9.984;2023-01-28T11:28:00;24.05;;;13.48;;
49614;SDS011;35517;45.272;9.984;2023-01-28T11:30:30;27.17;;;14.00;;
49614;SDS011;35517;45.272;9.984;2023-01-28T11:33:02;25.02;;;13.40;;
49614;SDS011;35517;45.272;9.984;2023-01-28T11:35:30;21.38;;;12.35;;
49614;SDS011;35517;45.272;9.984;2023-01-28T11:37:58;32.83;;;14.68;;
49614;SDS011;35517;45.272;9.984;2023-01-28T11:40:25;21.42;;;12.15;;
49614;SDS011;35517;45.272;9.984;2023-01-28T11:42:52;27.20;;;14.13;;
49614;SDS011;35517;45.272;9.984;2023-01-28T11:45:24;21.27;;;12.02;;
49614;SDS011;35517;45.272;9.984;2023-01-28T11:53:22;23.92;;;12.85;;
49614;SDS011;35517;45.272;9.984;2023-01-28T12:01:01;22.60;;;12.93;;
49614;SDS011;35517;45.272;9.984;2023-01-28T12:03:49;24.70;;;12.65;;
49614;SDS011;35517;45.272;9.984;2023-01-28T12:06:25;22.00;;;12.68;;
49614;SDS011;35517;45.272;9.984;2023-01-28T12:22:34;22.63;;;12.23;;
49614;SDS011;35517;45.272;9.984;2023-01-28T12:25:11;26.35;;;13.43;;
49614;SDS011;35517;45.272;9.984;2023-01-28T12:27:50;21.27;;;12.38;;
49614;SDS011;35517;45.272;9.984;2023-01-28T12:43:15;26.77;;;13.50;;
49614;SDS011;35517;45.272;9.984;2023-01-28T12:45:45;22.20;;;12.32;;
49614;SDS011;35517;45.272;9.984;2023-01-28T12:48:27;21.98;;;11.43;;
49614;SDS011;35517;45.272;9.984;2023-01-28T12:51:01;23.95;;;12.00;;
49614;SDS011;35517;45.272;9.984;2023-01-28T12:56:09;22.02;;;13.23;;
49614;SDS011;35517;45.272;9.984;2023-01-28T12:58:51;21.30;;;10.98;;
49614;SDS011;35517;45.272;9.984;2023-01-28T13:01:23;21.80;;;12.43;;
49614;SDS011;35517;45.272;9.984;2023-01-28T13:06:26;23.85;;;12.73;;
49614;SDS011;35517;45.272;9.984;2023-01-28T13:08:56;22.98;;;12.48;;
49614;SDS011;35517;45.272;9.984;2023-01-28T13:11:24;25.38;;;12.25;;
49614;SDS011;35517;45.272;9.984;2023-01-28T13:13:55;25.02;;;12.30;;
49614;SDS011;35517;45.272;9.984;2023-01-28T13:16:22;20.27;;;12.10;;
49614;SDS011;35517;45.272;9.984;2023-01-28T13:18:49;20.83;;;11.43;;
49614;SDS011;35517;45.272;9.984;2023-01-28T13:31:41;23.42;;;11.18;;
49614;SDS011;35517;45.272;9.984;2023-01-28T13:34:10;20.70;;;11.48;;
49614;SDS011;35517;45.272;9.984;2023-01-28T13:36:49;17.88;;;10.77;;
49614;SDS011;35517;45.272;9.984;2023-01-28T13:39:23;23.13;;;10.68;;
49614;SDS011;35517;45.272;9.984;2023-01-28T13:42:26;21.02;;;10.82;;
49614;SDS011;35517;45.272;9.984;2023-01-28T13:44:50;21.40;;;11.02;;
49614;SDS011;35517;45.272;9.984;2023-01-28T13:47:29;19.73;;;12.37;;
49614;SDS011;35517;45.272;9.984;2023-01-28T13:50:10;21.38;;;11.82;;
49614;SDS011;35517;45.272;9.984;2023-01-28T13:55:34;19.85;;;12.00;;
49614;SDS011;35517;45.272;9.984;2023-01-28T14:05:59;21.45;;;11.30;;
49614;SDS011;35517;45.272;9.984;2023-01-28T14:11:18;18.92;;;9.45;;
49614;SDS011;35517;45.272;9.984;2023-01-28T14:19:04;23.48;;;9.73;;
49614;SDS011;35517;45.272;9.984;2023-01-28T14:21:35;18.65;;;9.80;;
49614;SDS011;35517;45.272;9.984;2023-01-28T14:24:02;15.25;;;8.90;;
49614;SDS011;35517;45.272;9.984;2023-01-28T14:27:13;17.08;;;9.70;;
49614;SDS011;35517;45.272;9.984;2023-01-28T14:31:45;16.70;;;8.85;;
49614;SDS011;35517;45.272;9.984;2023-01-28T14:34:23;15.50;;;9.50;;
49614;SDS011;35517;45.272;9.984;2023-01-28T14:36:52;17.40;;;10.07;;
49614;SDS011;35517;45.272;9.984;2023-01-28T14:39:25;20.45;;;9.20;;
49614;SDS011;35517;45.272;9.984;2023-01-28T14:41:52;17.25;;;9.23;;
49614;SDS011;35517;45.272;9.984;2023-01-28T14:46:58;17.67;;;9.70;;
49614;SDS011;35517;45.272;9.984;2023-01-28T14:49:30;19.13;;;9.38;;
49614;SDS011;35517;45.272;9.984;2023-01-28T14:52:05;16.17;;;9.32;;
49614;SDS011;35517;45.272;9.984;2023-01-28T14:54:41;18.38;;;8.63;;
49614;SDS011;35517;45.272;9.984;2023-01-28T15:02:18;18.90;;;9.43;;
49614;SDS011;35517;45.272;9.984;2023-01-28T15:04:45;18.20;;;9.52;;
49614;SDS011;35517;45.272;9.984;2023-01-28T15:07:19;17.35;;;7.78;;
49614;SDS011;35517;45.272;9.984;2023-01-28T15:09:47;15.55;;;8.88;;
49614;SDS011;35517;45.272;9.984;2023-01-28T15:12:14;18.83;;;8.88;;
49614;SDS011;35517;45.272;9.984;2023-01-28T15:14:41;16.48;;;8.63;;
49614;SDS011;35517;45.272;9.984;2023-01-28T15:17:16;13.70;;;8.25;;
49614;SDS011;35517;45.272;9.984;2023-01-28T15:19:47;13.15;;;8.02;;
49614;SDS011;35517;45.272;9.984;2023-01-28T15:22:13;17.88;;;9.65;;
49614;SDS011;35517;45.272;9.984;2023-01-28T15:24:41;18.05;;;9.27;;
49614;SDS011;35517;45.272;9.984;2023-01-28T15:27:14;16.58;;;10.20;;
49614;SDS011;35517;45.272;9.984;2023-01-28T15:29:49;15.50;;;9.30;;
49614;SDS011;35517;45.272;9.984;2023-01-28T15:32:19;16.70;;;9.23;;
49614;SDS011;35517;45.272;9.984;2023-01-28T15:34:47;19.35;;;8.68;;
49614;SDS011;35517;45.272;9.984;2023-01-28T15:37:17;14.90;;;7.93;;
49614;SDS011;35517;45.272;9.984;2023-01-28T15:39:44;16.45;;;8.20;;
49614;SDS011;35517;45.272;9.984;2023-01-28T15:42:19;22.38;;;10.23;;
49614;SDS011;35517;45.272;9.984;2023-01-28T15:44:47;16.83;;;9.57;;
49614;SDS011;35517;45.272;9.984;2023-01-28T15:47:16;16.27;;;9.15;;
49614;SDS011;35517;45.272;9.984;2023-01-28T15:49:45;16.13;;;8.27;;
49614;SDS011;35517;45.272;9.984;2023-01-28T15:52:12;19.23;;;9.25;;
49614;SDS011;35517;45.272;9.984;2023-01-28T15:54:39;18.90;;;9.40;;
49614;SDS011;35517;45.272;9.984;2023-01-28T15:57:29;17.80;;;9.02;;
49614;SDS011;35517;45.272;9.984;2023-01-28T16:00:14;21.80;;;10.68;;
49614;SDS011;35517;45.272;9.984;2023-01-28T16:02:45;15.82;;;8.48;;
49614;SDS011;35517;45.272;9.984;2023-01-28T16:05:25;18.42;;;8.32;;
49614;SDS011;35517;45.272;9.984;2023-01-28T16:07:52;16.65;;;9.85;;
49614;SDS011;35517;45.272;9.984;2023-01-28T16:10:19;14.95;;;8.88;;
49614;SDS011;35517;45.272;9.984;2023-01-28T16:12:48;16.85;;;8.85;;
49614;SDS011;35517;45.272;9.984;2023-01-28T16:15:18;17.70;;;10.35;;
49614;SDS011;35517;45.272;9.984;2023-01-28T16:17:46;16.67;;;10.20;;
49614;SDS011;35517;45.272;9.984;2023-01-28T16:20:21;19.05;;;10.77;;
49614;SDS011;35517;45.272;9.984;2023-01-28T16:22:48;16.20;;;10.43;;
49614;SDS011;35517;45.272;9.984;2023-01-28T16:27:55;15.70;;;10.07;;
49614;SDS011;35517;45.272;9.984;2023-01-28T16:30:24;16.10;;;10.32;;
49614;SDS011;35517;45.272;9.984;2023-01-28T16:32:51;21.50;;;10.93;;
49614;SDS011;35517;45.272;9.984;2023-01-28T16:35:26;18.73;;;9.98;;
49614;SDS011;35517;45.272;9.984;2023-01-28T16:37:53;14.98;;;9.35;;
49614;SDS011;35517;45.272;9.984;2023-01-28T16:40:22;16.90;;;9.75;;
49614;SDS011;35517;45.272;9.984;2023-01-28T16:42:49;22.38;;;10.88;;
49614;SDS011;35517;45.272;9.984;2023-01-28T16:45:19;25.50;;;12.43;;
49614;SDS011;35517;45.272;9.984;2023-01-28T16:47:47;20.92;;;10.05;;
49614;SDS011;35517;45.272;9.984;2023-01-28T16:50:14;20.88;;;11.07;;
49614;SDS011;35517;45.272;9.984;2023-01-28T16:52:45;29.05;;;11.43;;
49614;SDS011;35517;45.272;9.984;2023-01-28T16:55:14;21.08;;;10.32;;
49614;SDS011;35517;45.272;9.984;2023-01-28T16:57:41;19.83;;;11.05;;
49614;SDS011;35517;45.272;9.984;2023-01-28T17:03:32;23.52;;;11.30;;
49614;SDS011;35517;45.272;9.984;2023-01-28T17:06:02;22.35;;;11.65;;
49614;SDS011;35517;45.272;9.984;2023-01-28T17:08:28;19.60;;;11.15;;
49614;SDS011;35517;45.272;9.984;2023-01-28T17:10:55;25.02;;;11.85;;
49614;SDS011;35517;45.272;9.984;2023-01-28T17:13:23;20.55;;;11.32;;
49614;SDS011;35517;45.272;9.984;2023-01-28T17:15:50;22.33;;;10.52;;
49614;SDS011;35517;45.272;9.984;2023-01-28T17:18:18;20.50;;;10.20;;
49614;SDS011;35517;45.272;9.984;2023-01-28T17:20:45;15.63;;;9.27;;
49614;SDS011;35517;45.272;9.984;2023-01-28T17:23:13;20.05;;;10.88;;
49614;SDS011;35517;45.272;9.984;2023-01-28T17:25:42;21.48;;;10.27;;
49614;SDS011;35517;45.272;9.984;2023-01-28T17:28:09;22.35;;;9.25;;
49614;SDS011;35517;45.272;9.984;2023-01-28T17:30:39;21.67;;;9.20;;
49614;SDS011;35517;45.272;9.984;2023-01-28T17:33:09;17.30;;;8.88;;
49614;SDS011;35517;45.272;9.984;2023-01-28T17:35:35;18.05;;;9.18;;
49614;SDS011;35517;45.272;9.984;2023-01-28T17:38:02;17.02;;;10.15;;
49614;SDS011;35517;45.272;9.984;2023-01-28T17:40:30;14.00;;;8.65;;